createdAt,value
2023-04-18T00:00:26.449Z,97.00
2023-04-18T00:03:16.208Z,97.00
2023-04-18T00:05:48.436Z,97.00
2023-04-18T00:08:17.634Z,97.00
2023-04-18T00:10:46.871Z,97.10
2023-04-18T00:13:18.598Z,97.00
2023-04-18T00:15:48.003Z,97.00
2023-04-18T00:18:17.490Z,97.10
2023-04-18T00:20:47.174Z,97.00
2023-04-18T00:23:16.563Z,97.00
2023-04-18T00:25:45.765Z,97.00
2023-04-18T00:28:14.606Z,97.00
2023-04-18T00:30:43.939Z,97.00
2023-04-18T00:33:12.760Z,97.00
2023-04-18T00:35:41.909Z,96.90
2023-04-18T00:38:10.721Z,97.20
2023-04-18T00:40:41.297Z,96.90
2023-04-18T00:43:10.109Z,96.90
2023-04-18T00:45:43.209Z,96.80
2023-04-18T00:48:12.634Z,96.80
2023-04-18T00:50:41.908Z,96.70
2023-04-18T00:53:11.349Z,96.70
2023-04-18T00:55:40.875Z,96.70
2023-04-18T00:58:10.209Z,96.70
2023-04-18T01:00:39.329Z,96.70
2023-04-18T01:03:08.963Z,96.70
2023-04-18T01:05:38.585Z,96.70
2023-04-18T01:08:07.346Z,96.60
2023-04-18T01:10:37.725Z,96.60
2023-04-18T01:13:20.864Z,96.60
2023-04-18T01:15:52.214Z,96.50
2023-04-18T01:18:23.085Z,96.50
2023-04-18T01:20:53.874Z,96.50
2023-04-18T01:23:22.659Z,96.40
2023-04-18T01:25:52.183Z,96.50
2023-04-18T01:28:23.036Z,96.40
2023-04-18T01:30:52.336Z,96.40
2023-04-18T01:33:21.194Z,96.40
2023-04-18T01:35:50.643Z,96.30
2023-04-18T01:38:19.420Z,96.30
2023-04-18T01:40:49.150Z,96.30
2023-04-18T01:43:17.953Z,96.30
2023-04-18T01:45:47.097Z,96.30
2023-04-18T01:48:16.041Z,96.20
2023-04-18T01:50:45.852Z,96.20
2023-04-18T01:53:14.651Z,96.20
2023-04-18T01:55:46.394Z,96.10
2023-04-18T01:58:16.469Z,96.10
2023-04-18T02:00:45.705Z,96.10
2023-04-18T02:03:14.555Z,96.10
2023-04-18T02:05:44.192Z,96.00
2023-04-18T02:08:13.495Z,96.00
2023-04-18T02:10:42.915Z,96.00
2023-04-18T02:13:11.734Z,96.00
2023-04-18T02:15:40.885Z,96.00
2023-04-18T02:18:09.937Z,95.90
2023-04-18T02:20:39.436Z,96.00
2023-04-18T02:23:08.205Z,95.90
2023-04-18T02:25:37.380Z,95.90
2023-04-18T02:28:06.111Z,96.00
2023-04-18T02:30:35.507Z,96.00
2023-04-18T02:33:04.424Z,95.90
2023-04-18T02:35:33.630Z,95.90
2023-04-18T02:38:02.420Z,95.90
2023-04-18T02:40:31.572Z,95.90
2023-04-18T02:43:02.826Z,95.90
2023-04-18T02:45:33.403Z,95.90
2023-04-18T02:48:02.622Z,95.90
2023-04-18T02:50:33.425Z,95.80
2023-04-18T02:53:02.364Z,95.80
2023-04-18T02:55:43.772Z,95.80
2023-04-18T02:58:12.920Z,95.80
2023-04-18T03:01:07.861Z,95.80
2023-04-18T03:03:59.494Z,95.90
2023-04-18T03:06:56.425Z,95.90
2023-04-18T03:09:26.204Z,95.80
2023-04-18T03:12:02.638Z,95.80
2023-04-18T03:14:33.116Z,95.80
2023-04-18T03:17:02.445Z,95.80
2023-04-18T03:19:37.446Z,95.80
2023-04-18T03:22:10.843Z,95.80
2023-04-18T03:24:47.276Z,95.80
2023-04-18T03:27:18.533Z,95.80
2023-04-18T03:29:48.347Z,95.70
2023-04-18T03:32:18.686Z,95.70
2023-04-18T03:34:47.673Z,95.70
2023-04-18T03:37:17.166Z,95.70
2023-04-18T03:39:51.842Z,95.80
2023-04-18T03:42:21.459Z,95.80
2023-04-18T03:44:50.848Z,95.70
2023-04-18T03:47:21.440Z,95.70
2023-04-18T03:49:56.575Z,95.60
2023-04-18T03:52:29.742Z,95.70
2023-04-18T03:54:59.092Z,95.70
2023-04-18T03:57:35.014Z,95.60
2023-04-18T04:00:08.855Z,95.70
2023-04-18T04:02:44.813Z,95.70
2023-04-18T04:05:20.763Z,95.60
2023-04-18T04:07:50.752Z,95.60
2023-04-18T04:10:20.529Z,95.70
2023-04-18T04:12:51.683Z,95.60
2023-04-18T04:15:21.018Z,95.50
2023-04-18T04:18:09.156Z,95.50
2023-04-18T04:20:41.461Z,95.50
2023-04-18T04:23:17.695Z,95.50
2023-04-18T04:25:49.285Z,95.40
2023-04-18T04:28:36.613Z,95.40
2023-04-18T04:31:09.880Z,95.30
2023-04-18T04:33:39.396Z,95.40
2023-04-18T04:36:18.825Z,95.40
2023-04-18T04:38:50.858Z,95.30
2023-04-18T04:41:21.180Z,95.30
2023-04-18T04:43:52.764Z,95.20
2023-04-18T04:46:29.893Z,95.20
2023-04-18T04:49:01.257Z,95.10
2023-04-18T04:51:30.229Z,95.10
2023-04-18T04:53:59.712Z,95.00
2023-04-18T04:56:28.904Z,95.10
2023-04-18T04:58:58.362Z,95.10
2023-04-18T05:01:34.123Z,95.10
2023-04-18T05:04:04.191Z,95.10
2023-04-18T05:06:33.148Z,95.20
2023-04-18T05:09:02.257Z,95.10
2023-04-18T05:11:30.971Z,95.50
2023-04-18T05:14:00.424Z,95.10
2023-04-18T05:16:29.256Z,95.10
2023-04-18T05:18:58.419Z,95.10
2023-04-18T05:21:28.883Z,95.00
2023-04-18T05:23:58.328Z,95.00
2023-04-18T05:26:27.175Z,95.00
2023-04-18T05:28:56.344Z,95.00
2023-04-18T05:31:26.350Z,95.00
2023-04-18T05:33:55.440Z,95.00
2023-04-18T05:36:24.141Z,95.10
2023-04-18T05:38:53.313Z,95.10
2023-04-18T05:41:22.096Z,95.10
2023-04-18T05:44:02.430Z,95.10
2023-04-18T05:46:34.199Z,95.10
2023-04-18T05:49:03.870Z,95.00
2023-04-18T05:51:32.644Z,94.90
2023-04-18T05:54:01.852Z,95.10
2023-04-18T05:56:30.904Z,95.30
2023-04-18T05:59:00.075Z,95.40
2023-04-18T06:01:29.136Z,95.50
2023-04-18T06:03:58.651Z,95.50
2023-04-18T06:06:27.879Z,95.50
2023-04-18T06:08:57.076Z,95.50
2023-04-18T06:11:26.095Z,95.40
2023-04-18T06:13:56.405Z,95.40
2023-04-18T06:16:25.247Z,95.30
2023-04-18T06:18:55.423Z,95.40
2023-04-18T06:21:24.408Z,95.50
2023-04-18T06:23:53.588Z,95.50
2023-04-18T06:26:22.586Z,95.60
2023-04-18T06:28:51.697Z,95.70
2023-04-18T06:31:20.528Z,95.70
2023-04-18T06:33:49.853Z,95.40
2023-04-18T06:36:18.871Z,95.30
2023-04-18T06:38:48.056Z,95.30
2023-04-18T06:41:16.886Z,95.80
2023-04-18T06:43:59.643Z,95.30
2023-04-18T06:46:33.101Z,95.40
2023-04-18T06:49:02.580Z,95.50
2023-04-18T06:51:31.940Z,95.40
2023-04-18T06:54:02.369Z,95.40
2023-04-18T06:56:31.145Z,95.40
2023-04-18T06:59:00.402Z,95.20
2023-04-18T07:01:33.936Z,95.40
2023-04-18T07:04:03.348Z,95.80
2023-04-18T07:06:32.135Z,96.00
2023-04-18T07:09:01.898Z,96.10
2023-04-18T07:11:30.664Z,96.20
2023-04-18T07:13:59.977Z,96.30
2023-04-18T07:16:29.080Z,96.30
2023-04-18T07:18:58.869Z,96.30
2023-04-18T07:21:28.233Z,96.30
2023-04-18T07:23:57.593Z,96.30
2023-04-18T07:26:27.825Z,96.30
2023-04-18T07:28:56.985Z,96.30
2023-04-18T07:31:28.973Z,96.20
2023-04-18T07:33:58.494Z,96.20
2023-04-18T07:36:28.749Z,96.10
2023-04-18T07:38:58.431Z,96.00
2023-04-18T07:41:27.372Z,95.90
2023-04-18T07:43:56.580Z,95.70
2023-04-18T07:46:25.505Z,95.60
2023-04-18T07:48:54.858Z,95.30
2023-04-18T07:51:27.036Z,95.30
2023-04-18T07:53:56.174Z,95.20
2023-04-18T07:56:25.676Z,95.20
2023-04-18T07:58:54.883Z,95.10
2023-04-18T08:01:24.949Z,94.90
2023-04-18T08:03:55.279Z,94.90
2023-04-18T08:06:24.201Z,94.90
2023-04-18T08:08:53.465Z,94.90
2023-04-18T08:11:22.264Z,94.80
2023-04-18T08:13:51.579Z,95.00
2023-04-18T08:16:20.491Z,94.50
2023-04-18T08:18:49.650Z,94.40
2023-04-18T08:21:20.035Z,94.20
2023-04-18T08:23:49.370Z,94.00
2023-04-18T08:26:18.347Z,93.90
2023-04-18T08:28:47.635Z,93.80
2023-04-18T08:31:17.314Z,93.60
2023-04-18T08:33:46.546Z,93.50
2023-04-18T08:36:15.351Z,93.60
2023-04-18T08:38:44.497Z,93.40
2023-04-18T08:41:13.217Z,93.40
2023-04-18T08:43:42.281Z,93.40
2023-04-18T08:46:11.045Z,93.50
2023-04-18T08:48:40.607Z,93.40
2023-04-18T08:51:09.538Z,93.40
2023-04-18T08:53:39.630Z,93.30
2023-04-18T08:56:10.819Z,93.40
2023-04-18T08:58:40.608Z,93.50
2023-04-18T09:01:10.412Z,93.40
2023-04-18T09:03:43.371Z,93.50
2023-04-18T09:06:16.455Z,93.50
2023-04-18T09:08:59.301Z,93.50
2023-04-18T09:11:29.833Z,93.40
2023-04-18T09:13:59.335Z,93.30
2023-04-18T09:16:28.401Z,93.10
2023-04-18T09:19:19.246Z,93.10
2023-04-18T09:21:49.120Z,92.80
2023-04-18T09:24:26.822Z,92.80
2023-04-18T09:27:01.451Z,92.70
2023-04-18T09:29:47.517Z,92.60
2023-04-18T09:32:27.741Z,92.60
2023-04-18T09:35:05.645Z,92.40
2023-04-18T09:37:35.276Z,92.40
2023-04-18T09:40:16.589Z,92.30
2023-04-18T09:42:46.337Z,92.20
2023-04-18T09:45:16.370Z,92.20
2023-04-18T09:47:45.654Z,92.00
2023-04-18T09:50:17.222Z,92.00
2023-04-18T09:52:46.464Z,92.00
2023-04-18T09:55:18.771Z,92.00
2023-04-18T09:57:48.753Z,92.00
2023-04-18T10:00:26.742Z,92.00
2023-04-18T10:03:22.058Z,92.10
2023-04-18T10:05:51.979Z,92.00
2023-04-18T10:08:20.919Z,92.00
2023-04-18T10:10:50.198Z,92.10
2023-04-18T10:13:19.037Z,92.00
2023-04-18T10:15:51.424Z,92.00
2023-04-18T10:18:25.527Z,92.00
2023-04-18T10:21:03.810Z,92.00
2023-04-18T10:23:32.682Z,91.90
2023-04-18T10:26:03.839Z,91.90
2023-04-18T10:29:09.794Z,91.80
2023-04-18T10:31:39.825Z,91.70
2023-04-18T10:34:08.651Z,91.70
2023-04-18T10:36:37.808Z,91.60
2023-04-18T10:39:23.244Z,91.70
2023-04-18T10:41:52.620Z,91.70
2023-04-18T10:44:23.342Z,91.60
2023-04-18T10:46:53.023Z,91.60
2023-04-18T10:49:32.595Z,91.60
2023-04-18T10:52:03.344Z,91.20
2023-04-18T10:54:59.245Z,89.40
2023-04-18T10:57:46.263Z,88.00
2023-04-18T11:00:20.668Z,87.10
2023-04-18T11:02:52.877Z,86.40
2023-04-18T11:05:25.087Z,85.10
2023-04-18T11:07:54.491Z,84.60
2023-04-18T11:10:26.739Z,84.10
2023-04-18T11:12:57.612Z,84.20
2023-04-18T11:15:28.019Z,83.00
2023-04-18T11:18:05.224Z,83.00
2023-04-18T11:20:46.430Z,83.30
2023-04-18T11:23:21.484Z,83.50
2023-04-18T11:25:54.694Z,84.00
2023-04-18T11:28:26.867Z,82.80
2023-04-18T11:30:59.721Z,83.30
2023-04-18T11:33:29.617Z,83.30
2023-04-18T11:36:01.219Z,82.70
2023-04-18T11:38:31.172Z,82.60
2023-04-18T11:41:02.579Z,81.60
2023-04-18T11:43:31.833Z,81.80
2023-04-18T11:46:00.826Z,82.20
2023-04-18T11:48:37.703Z,83.00
2023-04-18T11:51:07.386Z,83.20
2023-04-18T11:53:37.957Z,82.10
2023-04-18T11:56:07.403Z,81.70
2023-04-18T11:58:37.132Z,82.00
2023-04-18T12:01:25.795Z,81.60
2023-04-18T12:04:21.597Z,82.40
2023-04-18T12:06:52.563Z,83.40
2023-04-18T12:09:24.992Z,84.00
2023-04-18T12:12:02.987Z,84.30
2023-04-18T12:14:32.320Z,84.50
2023-04-18T12:17:03.958Z,85.00
2023-04-18T12:19:34.435Z,84.40
2023-04-18T12:22:05.497Z,84.40
2023-04-18T12:24:34.766Z,84.80
2023-04-18T12:27:03.687Z,85.00
2023-04-18T12:29:32.816Z,84.30
2023-04-18T12:32:01.731Z,84.10
2023-04-18T12:34:31.017Z,84.10
2023-04-18T12:37:00.341Z,84.50
2023-04-18T12:39:29.534Z,85.10
2023-04-18T12:41:58.763Z,85.30
2023-04-18T12:44:28.250Z,85.60
2023-04-18T12:46:57.114Z,85.30
2023-04-18T12:49:26.368Z,85.30
2023-04-18T12:51:55.153Z,85.90
2023-04-18T12:54:26.073Z,85.40
2023-04-18T12:56:54.908Z,85.40
2023-04-18T12:59:24.119Z,84.90
2023-04-18T13:01:53.040Z,84.20
2023-04-18T13:04:22.649Z,84.80
2023-04-18T13:06:51.558Z,84.50
2023-04-18T13:09:20.861Z,83.70
2023-04-18T13:11:49.783Z,82.70
2023-04-18T13:14:19.077Z,82.50
2023-04-18T13:16:49.142Z,82.50
2023-04-18T13:19:18.408Z,83.20
2023-04-18T13:21:49.132Z,83.80
2023-04-18T13:24:18.814Z,84.00
2023-04-18T13:26:47.850Z,83.80
2023-04-18T13:29:16.810Z,81.90
2023-04-18T13:31:45.502Z,82.20
2023-04-18T13:34:14.357Z,80.90
2023-04-18T13:36:43.186Z,81.60
2023-04-18T13:39:12.950Z,81.50
2023-04-18T13:41:41.869Z,82.30
2023-04-18T13:44:10.759Z,82.80
2023-04-18T13:46:39.648Z,82.40
2023-04-18T13:49:08.825Z,81.10
2023-04-18T13:51:37.479Z,81.10
2023-04-18T13:54:06.388Z,81.30
2023-04-18T13:56:35.019Z,80.10
2023-04-18T13:59:04.011Z,78.30
2023-04-18T14:01:32.516Z,79.40
2023-04-18T14:04:02.955Z,80.20
2023-04-18T14:06:32.726Z,80.00
2023-04-18T14:09:01.708Z,80.20
2023-04-18T14:11:30.308Z,80.60
2023-04-18T14:13:59.208Z,80.10
2023-04-18T14:16:32.287Z,80.80
2023-04-18T14:19:02.187Z,81.20
2023-04-18T14:21:31.496Z,79.00
2023-04-18T14:24:00.771Z,79.00
2023-04-18T14:26:29.485Z,79.00
2023-04-18T14:28:58.359Z,79.70
2023-04-18T14:31:28.481Z,79.80
2023-04-18T14:33:57.403Z,79.20
2023-04-18T14:36:27.407Z,78.30
2023-04-18T14:38:56.326Z,79.00
2023-04-18T14:41:24.873Z,78.60
2023-04-18T14:43:54.005Z,77.70
2023-04-18T14:46:22.652Z,77.10
2023-04-18T14:48:51.612Z,76.70
2023-04-18T14:51:20.245Z,76.10
2023-04-18T14:53:49.161Z,75.60
2023-04-18T14:56:21.354Z,75.70
2023-04-18T14:58:50.743Z,75.30
2023-04-18T15:01:19.480Z,75.70
2023-04-18T15:03:50.318Z,75.60
2023-04-18T15:06:18.948Z,75.80
2023-04-18T15:08:47.840Z,75.80
2023-04-18T15:11:16.415Z,76.30
2023-04-18T15:13:47.825Z,76.50
2023-04-18T15:16:16.866Z,77.00
2023-04-18T15:18:45.936Z,77.50
2023-04-18T15:21:14.491Z,77.20
2023-04-18T15:23:43.482Z,77.20
2023-04-18T15:26:12.003Z,76.90
2023-04-18T15:28:41.026Z,76.40
2023-04-18T15:31:09.871Z,76.30
2023-04-18T15:33:38.820Z,77.10
2023-04-18T15:36:07.487Z,77.00
2023-04-18T15:38:36.323Z,77.00
2023-04-18T15:41:04.919Z,77.40
2023-04-18T15:43:33.728Z,77.00
2023-04-18T15:46:02.264Z,77.60
2023-04-18T15:48:34.515Z,77.80
2023-04-18T15:51:04.049Z,77.70
2023-04-18T15:53:32.924Z,77.70
2023-04-18T15:56:02.208Z,77.40
2023-04-18T15:58:30.966Z,77.30
2023-04-18T16:00:59.570Z,77.70
2023-04-18T16:03:28.537Z,78.20
2023-04-18T16:05:57.200Z,78.10
2023-04-18T16:08:26.125Z,78.40
2023-04-18T16:10:54.628Z,78.10
2023-04-18T16:13:23.529Z,77.60
2023-04-18T16:15:52.029Z,77.60
2023-04-18T16:18:21.092Z,78.00
2023-04-18T16:20:49.752Z,79.10
2023-04-18T16:23:20.653Z,79.90
2023-04-18T16:25:49.638Z,81.00
2023-04-18T16:28:18.826Z,81.60
2023-04-18T16:30:47.540Z,82.00
2023-04-18T16:33:16.952Z,82.40
2023-04-18T16:35:45.705Z,83.00
2023-04-18T16:38:14.556Z,83.40
2023-04-18T16:40:43.036Z,83.80
2023-04-18T16:43:12.159Z,84.10
2023-04-18T16:45:40.697Z,84.30
2023-04-18T16:48:09.568Z,84.50
2023-04-18T16:50:38.041Z,84.80
2023-04-18T16:53:08.101Z,84.90
2023-04-18T16:55:36.791Z,85.00
2023-04-18T16:58:05.851Z,85.00
2023-04-18T17:00:35.823Z,85.20
2023-04-18T17:03:10.164Z,85.00
2023-04-18T17:05:39.817Z,84.90
2023-04-18T17:08:08.909Z,84.80
2023-04-18T17:10:37.478Z,84.90
2023-04-18T17:13:07.706Z,85.00
2023-04-18T17:15:36.756Z,85.40
2023-04-18T17:18:05.717Z,85.50
2023-04-18T17:20:36.250Z,85.50
2023-04-18T17:23:05.184Z,85.40
2023-04-18T17:25:33.636Z,85.60
2023-04-18T17:28:02.586Z,85.90
2023-04-18T17:30:31.555Z,86.00
2023-04-18T17:33:00.978Z,86.20
2023-04-18T17:35:29.534Z,86.60
2023-04-18T17:37:58.528Z,87.00
2023-04-18T17:40:28.824Z,87.20
2023-04-18T17:42:57.774Z,87.40
2023-04-18T17:45:26.482Z,88.00
2023-04-18T17:47:57.753Z,87.90
2023-04-18T17:50:26.373Z,88.00
2023-04-18T17:53:21.110Z,88.30
2023-04-18T17:55:52.482Z,88.60
2023-04-18T17:58:21.612Z,88.80
2023-04-18T18:00:50.621Z,89.10
2023-04-18T18:03:20.363Z,89.30
2023-04-18T18:05:49.943Z,89.30
2023-04-18T18:08:19.019Z,89.50
2023-04-18T18:10:47.873Z,89.90
2023-04-18T18:13:16.963Z,90.00
2023-04-18T18:15:45.792Z,90.00
2023-04-18T18:18:31.634Z,90.10
2023-04-18T18:21:00.073Z,90.20
2023-04-18T18:23:29.221Z,90.20
2023-04-18T18:25:57.692Z,90.20
2023-04-18T18:28:26.518Z,90.30
2023-04-18T18:30:55.304Z,90.60
2023-04-18T18:33:24.138Z,90.60
2023-04-18T18:35:52.858Z,90.60
2023-04-18T18:38:21.887Z,90.70
2023-04-18T18:40:50.558Z,90.80
2023-04-18T18:43:19.697Z,91.00
2023-04-18T18:45:48.361Z,91.30
2023-04-18T18:48:17.218Z,91.50
2023-04-18T18:50:45.947Z,91.60
2023-04-18T18:53:18.106Z,91.70
2023-04-18T18:55:46.881Z,92.00
2023-04-18T18:58:15.756Z,92.30
2023-04-18T19:00:44.123Z,92.60
2023-04-18T19:03:13.193Z,92.90
2023-04-18T19:05:41.892Z,93.50
2023-04-18T19:08:10.781Z,94.20
2023-04-18T19:10:39.213Z,94.50
2023-04-18T19:13:08.101Z,94.70
2023-04-18T19:15:36.760Z,95.00
2023-04-18T19:18:05.977Z,95.30
2023-04-18T19:20:35.087Z,95.50
2023-04-18T19:23:04.511Z,95.70
2023-04-18T19:25:33.159Z,96.00
2023-04-18T19:28:01.995Z,96.10
2023-04-18T19:30:30.649Z,96.30
2023-04-18T19:32:59.793Z,96.40
2023-04-18T19:35:28.595Z,96.60
2023-04-18T19:38:01.815Z,96.70
2023-04-18T19:40:30.492Z,96.70
2023-04-18T19:42:59.553Z,96.80
2023-04-18T19:45:28.237Z,96.90
2023-04-18T19:47:57.190Z,97.00
2023-04-18T19:50:26.542Z,97.10
2023-04-18T19:52:55.454Z,97.10
2023-04-18T19:55:24.237Z,97.20
2023-04-18T19:57:59.068Z,97.30
2023-04-18T20:00:28.914Z,97.30
2023-04-18T20:02:59.183Z,97.40
2023-04-18T20:05:27.886Z,97.40
2023-04-18T20:07:56.892Z,97.50
2023-04-18T20:10:25.656Z,97.50
2023-04-18T20:12:55.567Z,97.60
2023-04-18T20:15:24.197Z,97.60
2023-04-18T20:17:53.111Z,97.60
2023-04-18T20:20:21.828Z,97.70
2023-04-18T20:22:50.803Z,98.10
2023-04-18T20:25:19.430Z,97.80
2023-04-18T20:27:48.636Z,97.70
2023-04-18T20:30:17.366Z,97.80
2023-04-18T20:32:46.294Z,97.90
2023-04-18T20:35:14.970Z,97.90
2023-04-18T20:37:44.883Z,98.20
2023-04-18T20:40:13.463Z,97.90
2023-04-18T20:42:42.519Z,98.00
2023-04-18T20:45:11.374Z,98.00
2023-04-18T20:47:42.346Z,98.00
2023-04-18T20:50:11.457Z,97.90
2023-04-18T20:52:43.027Z,97.80
2023-04-18T20:55:12.004Z,97.70
2023-04-18T20:57:41.121Z,97.60
2023-04-18T21:00:10.850Z,97.60
2023-04-18T21:02:41.726Z,97.60
2023-04-18T21:05:10.746Z,97.60
2023-04-18T21:07:39.810Z,97.60
2023-04-18T21:10:08.921Z,97.50
2023-04-18T21:12:37.852Z,97.40
2023-04-18T21:15:07.207Z,97.40
2023-04-18T21:17:36.243Z,97.40
2023-04-18T21:20:06.520Z,97.40
2023-04-18T21:22:35.605Z,97.40
2023-04-18T21:25:05.327Z,97.40
2023-04-18T21:27:34.205Z,97.40
2023-04-18T21:30:04.764Z,97.40
2023-04-18T21:32:34.119Z,97.40
2023-04-18T21:35:02.770Z,97.40
2023-04-18T21:37:32.009Z,97.40
2023-04-18T21:40:01.668Z,97.40
2023-04-18T21:42:30.614Z,97.40
2023-04-18T21:44:59.176Z,97.50
2023-04-18T21:47:28.105Z,97.40
2023-04-18T21:49:56.656Z,97.40
2023-04-18T21:52:25.887Z,97.40
2023-04-18T21:54:54.540Z,97.80
2023-04-18T21:57:23.378Z,97.40
2023-04-18T21:59:51.916Z,97.40
2023-04-18T22:02:21.147Z,97.40
2023-04-18T22:04:50.115Z,97.40
2023-04-18T22:07:19.077Z,97.50
2023-04-18T22:09:47.652Z,97.40
2023-04-18T22:12:16.539Z,97.40
2023-04-18T22:14:48.615Z,97.40
2023-04-18T22:17:17.518Z,97.40
2023-04-18T22:19:47.667Z,97.40
2023-04-18T22:22:16.863Z,97.40
2023-04-18T22:24:47.576Z,97.40
2023-04-18T22:27:16.984Z,97.40
2023-04-18T22:29:45.536Z,97.40
2023-04-18T22:32:14.517Z,97.40
2023-04-18T22:34:43.129Z,97.40
2023-04-18T22:37:12.276Z,97.40
2023-04-18T22:39:40.901Z,97.40
2023-04-18T22:42:09.784Z,97.30
2023-04-18T22:44:38.367Z,97.30
2023-04-18T22:47:08.259Z,97.30
2023-04-18T22:49:36.867Z,97.30
2023-04-18T22:52:06.408Z,97.30
2023-04-18T22:54:39.718Z,97.30
2023-04-18T22:57:08.856Z,97.30
2023-04-18T22:59:37.540Z,97.30
2023-04-18T23:02:06.966Z,97.30
2023-04-18T23:04:36.347Z,97.30
2023-04-18T23:07:05.612Z,97.30
2023-04-18T23:09:34.120Z,97.30
2023-04-18T23:12:03.243Z,97.20
2023-04-18T23:14:32.224Z,97.20
2023-04-18T23:17:01.605Z,97.30
2023-04-18T23:19:30.215Z,97.30
2023-04-18T23:21:59.975Z,97.30
2023-04-18T23:24:28.690Z,97.30
2023-04-18T23:26:58.016Z,97.30
2023-04-18T23:29:26.589Z,97.30
2023-04-18T23:31:55.621Z,97.20
2023-04-18T23:34:24.432Z,97.20
2023-04-18T23:36:53.318Z,97.20
2023-04-18T23:39:21.868Z,97.20
2023-04-18T23:41:50.839Z,97.20
2023-04-18T23:44:19.329Z,97.20
2023-04-18T23:46:48.563Z,97.20
2023-04-18T23:49:17.137Z,97.20
2023-04-18T23:51:46.010Z,97.20
2023-04-18T23:54:14.673Z,97.10
2023-04-18T23:56:43.663Z,97.10
2023-04-18T23:59:12.101Z,97.10
